createdAt,value
2023-01-03T00:05:01.920Z,64.13
2023-01-03T00:10:10.719Z,64.25
2023-01-03T00:15:17.938Z,64.30
2023-01-03T00:20:25.315Z,64.29
2023-01-03T00:25:32.508Z,64.45
2023-01-03T00:30:39.982Z,64.01
2023-01-03T00:35:47.257Z,64.31
2023-01-03T00:40:54.559Z,63.99
2023-01-03T00:46:01.839Z,63.99
2023-01-03T00:51:10.295Z,64.05
2023-01-03T00:56:17.962Z,64.17
2023-01-03T01:01:25.489Z,63.98
2023-01-03T01:06:33.370Z,64.51
2023-01-03T01:11:40.937Z,63.93
2023-01-03T01:16:48.810Z,63.86
2023-01-03T01:21:55.987Z,64.01
2023-01-03T01:27:02.905Z,63.91
2023-01-03T01:32:09.784Z,64.06
2023-01-03T01:37:16.867Z,64.38
2023-01-03T01:42:41.120Z,64.14
2023-01-03T01:47:52.543Z,64.15
2023-01-03T01:53:01.969Z,64.15
2023-01-03T01:58:09.487Z,64.17
2023-01-03T02:03:16.582Z,63.92
2023-01-03T02:08:25.440Z,64.23
2023-01-03T02:13:39.218Z,64.32
2023-01-03T02:18:49.599Z,64.15
2023-01-03T02:24:13.547Z,64.23
2023-01-03T02:29:42.637Z,64.50
2023-01-03T02:34:53.007Z,64.29
2023-01-03T02:40:07.020Z,64.34
2023-01-03T02:45:16.536Z,64.20
2023-01-03T02:50:26.741Z,64.38
2023-01-03T02:55:35.721Z,64.40
2023-01-03T03:00:45.859Z,64.17
2023-01-03T03:06:04.512Z,64.15
2023-01-03T03:11:29.111Z,64.60
2023-01-03T03:16:49.655Z,64.32
2023-01-03T03:22:14.236Z,64.36
2023-01-03T03:27:41.199Z,64.32
2023-01-03T03:32:50.449Z,64.37
2023-01-03T03:37:58.788Z,64.42
2023-01-03T03:43:25.534Z,64.24
2023-01-03T03:48:56.781Z,63.94
2023-01-03T03:54:06.657Z,64.40
2023-01-03T03:59:13.954Z,64.00
2023-01-03T04:04:24.332Z,64.47
2023-01-03T04:09:31.348Z,64.17
2023-01-03T04:14:38.367Z,64.13
2023-01-03T04:19:45.237Z,64.24
2023-01-03T04:24:51.780Z,64.34
2023-01-03T04:29:58.739Z,64.29
2023-01-03T04:35:05.884Z,64.59
2023-01-03T04:40:13.658Z,64.08
2023-01-03T04:45:20.398Z,64.20
2023-01-03T04:50:27.539Z,64.15
2023-01-03T04:55:34.674Z,64.28
2023-01-03T05:00:41.730Z,64.18
2023-01-03T05:05:48.539Z,64.23
2023-01-03T05:10:55.479Z,64.46
2023-01-03T05:16:07.830Z,64.31
2023-01-03T05:21:34.587Z,64.31
2023-01-03T05:26:42.667Z,64.07
2023-01-03T05:31:49.834Z,64.09
2023-01-03T05:36:56.930Z,64.11
2023-01-03T05:42:03.873Z,64.20
2023-01-03T05:47:11.388Z,63.99
2023-01-03T05:52:18.659Z,64.25
2023-01-03T05:57:29.273Z,64.20
2023-01-03T06:02:39.400Z,64.46
2023-01-03T06:07:46.565Z,63.76
2023-01-03T06:12:53.502Z,63.82
2023-01-03T06:18:02.850Z,64.21
2023-01-03T06:23:10.032Z,64.61
2023-01-03T06:28:17.271Z,63.92
2023-01-03T06:33:24.392Z,63.62
2023-01-03T06:38:32.101Z,63.96
2023-01-03T06:43:38.954Z,63.93
2023-01-03T06:49:03.388Z,64.12
2023-01-03T06:54:11.339Z,64.01
2023-01-03T06:59:18.512Z,64.27
2023-01-03T07:04:26.067Z,64.09
2023-01-03T07:09:33.139Z,64.47
2023-01-03T07:14:40.208Z,64.03
2023-01-03T07:19:47.198Z,63.89
2023-01-03T07:24:53.950Z,64.33
2023-01-03T07:30:00.832Z,64.05
2023-01-03T07:35:08.674Z,64.24
2023-01-03T07:40:16.028Z,64.16
2023-01-03T07:45:23.033Z,64.40
2023-01-03T07:50:30.308Z,64.07
2023-01-03T07:55:38.629Z,64.43
2023-01-03T08:00:45.256Z,64.24
2023-01-03T08:05:52.267Z,64.52
2023-01-03T08:11:16.719Z,64.35
2023-01-03T08:16:23.489Z,64.04
2023-01-03T08:21:30.811Z,63.87
2023-01-03T08:26:37.989Z,64.19
2023-01-03T08:31:47.454Z,64.26
2023-01-03T08:36:57.304Z,63.96
2023-01-03T08:42:06.158Z,63.97
2023-01-03T08:47:14.255Z,63.77
2023-01-03T08:52:21.439Z,63.88
2023-01-03T08:57:28.601Z,63.98
2023-01-03T09:02:37.447Z,63.49
2023-01-03T09:07:44.556Z,63.87
2023-01-03T09:12:52.228Z,63.90
2023-01-03T09:17:59.289Z,63.71
2023-01-03T09:23:06.377Z,63.56
2023-01-03T09:28:13.576Z,63.74
2023-01-03T09:33:20.332Z,63.50
2023-01-03T09:38:27.089Z,63.54
2023-01-03T09:43:37.288Z,63.54
2023-01-03T09:48:44.119Z,63.61
2023-01-03T09:54:08.690Z,63.40
2023-01-03T09:59:34.118Z,63.91
2023-01-03T10:05:00.803Z,63.31
2023-01-03T10:10:17.449Z,63.17
2023-01-03T10:15:32.417Z,63.55
2023-01-03T10:20:47.477Z,63.48
2023-01-03T10:25:54.457Z,63.37
2023-01-03T10:31:08.368Z,63.09
2023-01-03T10:36:15.906Z,63.11
2023-01-03T10:41:32.671Z,62.93
2023-01-03T10:46:51.415Z,63.17
2023-01-03T10:52:00.476Z,63.37
2023-01-03T10:57:09.618Z,63.13
2023-01-03T11:02:20.297Z,63.23
2023-01-03T11:07:27.755Z,63.48
2023-01-03T11:12:37.017Z,63.07
2023-01-03T11:17:54.444Z,63.57
2023-01-03T11:23:04.940Z,63.41
2023-01-03T11:28:26.426Z,63.73
2023-01-03T11:33:43.818Z,63.47
2023-01-03T11:38:54.285Z,63.56
2023-01-03T11:44:13.117Z,63.34
2023-01-03T11:49:26.877Z,63.49
2023-01-03T11:54:40.839Z,63.20
2023-01-03T12:00:00.544Z,63.17
2023-01-03T12:05:19.885Z,63.40
2023-01-03T12:10:28.797Z,63.08
2023-01-03T12:15:41.556Z,63.44
2023-01-03T12:20:50.517Z,63.45
2023-01-03T12:25:59.116Z,63.58
2023-01-03T12:31:08.147Z,63.17
2023-01-03T12:36:23.690Z,63.33
2023-01-03T12:41:35.717Z,63.43
2023-01-03T12:46:46.745Z,63.35
2023-01-03T12:51:54.033Z,63.36
2023-01-03T12:57:09.200Z,63.49
2023-01-03T13:02:22.963Z,63.21
2023-01-03T13:07:32.562Z,63.30
2023-01-03T13:12:41.772Z,63.22
2023-01-03T13:17:49.558Z,63.63
2023-01-03T13:22:57.259Z,63.58
2023-01-03T13:28:06.684Z,63.29
2023-01-03T13:33:21.593Z,63.38
2023-01-03T13:38:31.023Z,63.17
2023-01-03T13:43:40.191Z,63.10
2023-01-03T13:48:55.117Z,63.01
2023-01-03T13:54:03.542Z,63.19
2023-01-03T13:59:21.526Z,63.23
2023-01-03T14:04:41.602Z,63.22
2023-01-03T14:09:56.776Z,63.43
2023-01-03T14:15:21.269Z,63.24
2023-01-03T14:20:34.051Z,63.43
2023-01-03T14:25:41.794Z,63.24
2023-01-03T14:30:52.662Z,62.96
2023-01-03T14:36:04.908Z,63.56
2023-01-03T14:41:26.136Z,63.38
2023-01-03T14:46:33.766Z,63.07
2023-01-03T14:51:40.878Z,63.15
2023-01-03T14:56:48.367Z,63.16
2023-01-03T15:01:55.558Z,62.96
2023-01-03T15:07:09.515Z,63.13
2023-01-03T15:12:18.689Z,63.34
2023-01-03T15:17:27.741Z,63.43
2023-01-03T15:22:40.481Z,63.37
2023-01-03T15:27:48.417Z,63.37
2023-01-03T15:33:00.320Z,63.41
2023-01-03T15:38:08.714Z,63.25
2023-01-03T15:43:26.647Z,63.39
2023-01-03T15:48:35.645Z,63.58
2023-01-03T15:53:44.725Z,63.16
2023-01-03T15:58:53.326Z,63.69
2023-01-03T16:04:00.456Z,63.48
2023-01-03T16:09:07.959Z,63.42
2023-01-03T16:14:17.020Z,63.48
2023-01-03T16:19:24.709Z,63.26
2023-01-03T16:24:33.204Z,63.53
2023-01-03T16:29:40.093Z,63.14
2023-01-03T16:34:47.299Z,63.26
2023-01-03T16:39:54.085Z,63.13
2023-01-03T16:45:01.034Z,62.86
2023-01-03T16:50:10.037Z,63.10
2023-01-03T16:55:18.157Z,62.94
2023-01-03T17:00:26.385Z,63.43
2023-01-03T17:05:35.646Z,62.87
2023-01-03T17:10:43.938Z,62.95
2023-01-03T17:15:51.263Z,63.09
2023-01-03T17:20:58.918Z,62.77
2023-01-03T17:26:05.887Z,63.19
2023-01-03T17:31:15.930Z,62.78
2023-01-03T17:36:25.853Z,62.77
2023-01-03T17:41:52.797Z,63.14
2023-01-03T17:47:20.086Z,62.95
2023-01-03T17:52:31.374Z,63.12
2023-01-03T17:57:38.839Z,63.26
2023-01-03T18:02:46.144Z,63.07
2023-01-03T18:07:53.697Z,63.35
2023-01-03T18:13:01.092Z,63.02
2023-01-03T18:18:11.658Z,62.96
2023-01-03T18:23:19.581Z,62.91
2023-01-03T18:28:27.430Z,62.59
2023-01-03T18:33:34.497Z,63.10
2023-01-03T18:38:41.777Z,62.85
2023-01-03T18:43:48.578Z,62.75
2023-01-03T18:48:55.868Z,63.04
2023-01-03T18:54:03.127Z,62.92
2023-01-03T18:59:15.196Z,62.99
2023-01-03T19:04:22.129Z,62.89
2023-01-03T19:09:29.847Z,62.78
2023-01-03T19:14:38.105Z,62.88
2023-01-03T19:19:47.169Z,62.80
2023-01-03T19:24:55.069Z,62.87
2023-01-03T19:30:02.057Z,63.01
2023-01-03T19:35:15.037Z,62.81
2023-01-03T19:40:23.229Z,62.78
2023-01-03T19:45:30.820Z,62.94
2023-01-03T19:50:37.721Z,62.80
2023-01-03T19:55:45.840Z,62.81
2023-01-03T20:00:53.607Z,62.84
2023-01-03T20:06:00.965Z,62.88
2023-01-03T20:11:08.257Z,62.67
2023-01-03T20:16:15.661Z,62.86
2023-01-03T20:21:23.625Z,62.69
2023-01-03T20:26:31.418Z,62.94
2023-01-03T20:31:39.016Z,63.28
2023-01-03T20:36:47.809Z,63.04
2023-01-03T20:41:57.363Z,62.81
2023-01-03T20:47:09.264Z,63.05
2023-01-03T20:52:18.359Z,63.05
2023-01-03T20:57:25.588Z,62.63
2023-01-03T21:02:32.998Z,62.91
2023-01-03T21:07:54.257Z,62.69
2023-01-03T21:13:01.720Z,62.65
2023-01-03T21:18:09.054Z,62.74
2023-01-03T21:23:19.218Z,62.88
2023-01-03T21:28:26.117Z,62.93
2023-01-03T21:33:33.029Z,62.53
2023-01-03T21:38:40.122Z,62.59
2023-01-03T21:43:46.892Z,62.80
2023-01-03T21:48:54.328Z,62.73
2023-01-03T21:54:01.727Z,63.09
2023-01-03T21:59:08.761Z,63.01
2023-01-03T22:04:18.888Z,62.91
2023-01-03T22:09:43.318Z,63.04
2023-01-03T22:14:50.492Z,63.05
2023-01-03T22:19:57.861Z,62.84
2023-01-03T22:25:04.898Z,63.18
2023-01-03T22:30:14.007Z,62.72
2023-01-03T22:35:21.301Z,63.05
2023-01-03T22:40:28.591Z,63.04
2023-01-03T22:45:35.614Z,63.05
2023-01-03T22:50:43.113Z,62.84
2023-01-03T22:55:50.239Z,62.94
2023-01-03T23:00:57.528Z,63.25
2023-01-03T23:06:07.290Z,62.98
2023-01-03T23:11:34.720Z,62.79
2023-01-03T23:16:42.292Z,62.69
2023-01-03T23:21:49.418Z,63.13
2023-01-03T23:26:56.177Z,63.03
2023-01-03T23:32:03.124Z,62.94
2023-01-03T23:37:10.156Z,63.23
2023-01-03T23:42:17.328Z,62.91
2023-01-03T23:47:24.648Z,63.01
2023-01-03T23:52:31.977Z,62.80
2023-01-03T23:57:39.197Z,63.48
